Time,TemperatureF,DewpointF,PressureIn,WindDirection,WindDirectionDegrees,WindSpeedMPH,WindSpeedGustMPH,Humidity,HourlyPrecipIn,Conditions,Clouds,dailyrainin,SolarRadiationWatts/m^2,SoftwareType,DateUTC
2013-10-08 00:01:00,59.8,22.9,30.02,SW,226,8.0,10.0,24,0.00,,,0.00,0,Wunderground v.1.15,2013-10-08 07:01:00,
2013-10-08 00:07:00,59.6,23.7,30.02,SW,226,10.0,12.0,25,0.00,,,0.00,0,Wunderground v.1.15,2013-10-08 07:07:00,
2013-10-08 00:12:00,59.9,23.9,30.01,SW,226,8.0,10.0,25,0.00,,,0.00,0,Wunderground v.1.15,2013-10-08 07:12:00,
2013-10-08 00:17:00,59.9,23.9,30.01,SW,226,7.0,10.0,25,0.00,,,0.00,0,Wunderground v.1.15,2013-10-08 07:17:00,
2013-10-08 00:22:00,60.3,25.2,30.00,SW,226,7.0,14.0,26,0.00,,,0.00,0,Wunderground v.1.15,2013-10-08 07:22:00,
2013-10-08 00:27:00,60.5,24.5,30.00,SW,226,8.0,14.0,25,0.00,,,0.00,0,Wunderground v.1.15,2013-10-08 07:27:00,
2013-10-08 00:32:00,60.9,24.8,30.00,SW,226,10.0,16.0,25,0.00,,,0.00,0,Wunderground v.1.15,2013-10-08 07:32:00,
2013-10-08 00:37:00,60.9,24.8,29.99,SW,226,12.0,18.0,25,0.00,,,0.00,0,Wunderground v.1.15,2013-10-08 07:37:00,
2013-10-08 00:42:00,61.1,25.0,29.99,SW,226,14.0,15.0,25,0.00,,,0.00,0,Wunderground v.1.15,2013-10-08 07:42:00,
2013-10-08 00:47:00,60.9,24.8,29.99,SW,226,15.0,21.0,25,0.00,,,0.00,0,Wunderground v.1.15,2013-10-08 07:47:00,
2013-10-08 00:53:00,60.8,25.7,29.99,SW,226,13.0,21.0,26,0.00,,,0.00,0,Wunderground v.1.15,2013-10-08 07:53:00,
2013-10-08 00:58:00,60.8,24.7,29.99,SW,226,14.0,21.0,25,0.00,,,0.00,0,Wunderground v.1.15,2013-10-08 07:58:00,
2013-10-08 01:03:00,60.6,24.5,29.98,SW,226,12.0,18.0,25,0.00,,,0.00,0,Wunderground v.1.15,2013-10-08 08:03:00,
2013-10-08 01:09:00,60.2,25.1,29.98,SW,226,11.0,18.0,26,0.00,,,0.00,0,Wunderground v.1.15,2013-10-08 08:09:00,
2013-10-08 01:14:00,60.2,25.1,29.98,SW,226,11.0,14.0,26,0.00,,,0.00,0,Wunderground v.1.15,2013-10-08 08:14:00,
2013-10-08 01:19:00,60.0,25.0,29.98,SW,226,11.0,15.0,26,0.00,,,0.00,0,Wunderground v.1.15,2013-10-08 08:19:00,
2013-10-08 01:24:00,59.9,24.9,29.98,SW,226,8.0,11.0,26,0.00,,,0.00,0,Wunderground v.1.15,2013-10-08 08:24:00,
2013-10-08 01:30:00,59.8,24.8,29.98,SW,226,6.0,6.0,26,0.00,,,0.00,0,Wunderground v.1.15,2013-10-08 08:30:00,
2013-10-08 01:36:00,59.5,24.5,29.98,SW,226,7.0,11.0,26,0.00,,,0.00,0,Wunderground v.1.15,2013-10-08 08:36:00,
2013-10-08 01:41:00,59.0,24.1,29.97,SW,226,6.0,6.0,26,0.00,,,0.00,0,Wunderground v.1.15,2013-10-08 08:41:00,
2013-10-08 01:46:00,59.0,24.1,29.97,SW,226,6.0,10.0,26,0.00,,,0.00,0,Wunderground v.1.15,2013-10-08 08:46:00,
2013-10-08 01:52:00,59.0,24.1,29.97,SW,226,9.0,12.0,26,0.00,,,0.00,0,Wunderground v.1.15,2013-10-08 08:52:00,
2013-10-08 01:57:00,59.0,24.1,29.97,SW,226,11.0,18.0,26,0.00,,,0.00,0,Wunderground v.1.15,2013-10-08 08:57:00,
2013-10-08 02:02:00,59.0,24.1,29.97,SW,226,12.0,12.0,26,0.00,,,0.00,0,Wunderground v.1.15,2013-10-08 09:02:00,
2013-10-08 02:08:00,58.8,23.9,29.97,SW,226,11.0,12.0,26,0.00,,,0.00,0,Wunderground v.1.15,2013-10-08 09:08:00,
2013-10-08 02:13:00,58.8,23.9,29.96,SW,226,10.0,14.0,26,0.00,,,0.00,0,Wunderground v.1.15,2013-10-08 09:13:00,
2013-10-08 02:18:00,59.0,24.1,29.96,SW,226,12.0,15.0,26,0.00,,,0.00,0,Wunderground v.1.15,2013-10-08 09:18:00,
2013-10-08 02:24:00,59.0,24.1,29.96,SW,226,11.0,16.0,26,0.00,,,0.00,0,Wunderground v.1.15,2013-10-08 09:24:00,
2013-10-08 02:29:00,58.6,24.7,29.96,SW,226,11.0,16.0,27,0.00,,,0.00,0,Wunderground v.1.15,2013-10-08 09:29:00,
2013-10-08 02:35:00,58.2,24.3,29.96,SW,226,10.0,11.0,27,0.00,,,0.00,0,Wunderground v.1.15,2013-10-08 09:35:00,
2013-10-08 02:41:00,58.0,24.2,29.95,SW,226,9.0,10.0,27,0.00,,,0.00,0,Wunderground v.1.15,2013-10-08 09:41:00,
2013-10-08 02:46:00,57.9,24.1,29.95,SW,226,9.0,10.0,27,0.00,,,0.00,0,Wunderground v.1.15,2013-10-08 09:46:00,
2013-10-08 02:51:00,58.0,24.2,29.95,SW,226,9.0,10.0,27,0.00,,,0.00,0,Wunderground v.1.15,2013-10-08 09:51:00,
2013-10-08 02:56:00,58.0,24.2,29.95,SW,226,10.0,11.0,27,0.00,,,0.00,0,Wunderground v.1.15,2013-10-08 09:56:00,
2013-10-08 03:02:00,57.9,24.1,29.95,SW,226,10.0,10.0,27,0.00,,,0.00,0,Wunderground v.1.15,2013-10-08 10:02:00,
2013-10-08 03:08:00,58.0,24.2,29.94,SW,226,11.0,14.0,27,0.00,,,0.00,0,Wunderground v.1.15,2013-10-08 10:08:00,
2013-10-08 03:13:00,57.8,24.0,29.94,SW,226,11.0,13.0,27,0.00,,,0.00,0,Wunderground v.1.15,2013-10-08 10:13:00,
2013-10-08 03:18:00,57.8,24.0,29.93,SW,226,10.0,13.0,27,0.00,,,0.00,0,Wunderground v.1.15,2013-10-08 10:18:00,
2013-10-08 03:24:00,57.7,23.9,29.93,SW,226,10.0,11.0,27,0.00,,,0.00,0,Wunderground v.1.15,2013-10-08 10:24:00,
2013-10-08 03:30:00,57.4,23.7,29.93,SW,226,9.0,9.0,27,0.00,,,0.00,0,Wunderground v.1.15,2013-10-08 10:30:00,
2013-10-08 03:35:00,57.2,24.3,29.93,SW,226,8.0,12.0,28,0.00,,,0.00,0,Wunderground v.1.15,2013-10-08 10:35:00,
2013-10-08 03:40:00,57.3,24.4,29.93,SW,226,9.0,9.0,28,0.00,,,0.00,0,Wunderground v.1.15,2013-10-08 10:40:00,
2013-10-08 03:45:00,57.4,24.5,29.92,SW,226,10.0,15.0,28,0.00,,,0.00,0,Wunderground v.1.15,2013-10-08 10:45:00,
2013-10-08 03:51:00,57.6,24.7,29.92,SW,226,11.0,12.0,28,0.00,,,0.00,0,Wunderground v.1.15,2013-10-08 10:51:00,
2013-10-08 03:56:00,57.6,24.7,29.92,SW,226,11.0,14.0,28,0.00,,,0.00,0,Wunderground v.1.15,2013-10-08 10:56:00,
2013-10-08 04:01:00,57.5,24.6,29.92,SW,226,12.0,15.0,28,0.00,,,0.00,0,Wunderground v.1.15,2013-10-08 11:01:00,
2013-10-08 04:06:00,57.6,25.5,29.91,SW,226,12.0,15.0,29,0.00,,,0.00,0,Wunderground v.1.15,2013-10-08 11:06:00,
2013-10-08 04:12:00,57.2,25.2,29.91,SW,226,11.0,12.0,29,0.00,,,0.00,0,Wunderground v.1.15,2013-10-08 11:12:00,
2013-10-08 04:17:00,57.6,25.5,29.91,SW,226,12.0,18.0,29,0.00,,,0.00,0,Wunderground v.1.15,2013-10-08 11:17:00,
2013-10-08 04:22:00,57.2,25.2,29.91,SW,226,12.0,12.0,29,0.00,,,0.00,0,Wunderground v.1.15,2013-10-08 11:22:00,
2013-10-08 04:27:00,56.5,25.4,29.90,SW,226,9.0,12.0,30,0.00,,,0.00,0,Wunderground v.1.15,2013-10-08 11:27:00,
2013-10-08 04:32:00,56.4,25.3,29.90,SW,226,9.0,12.0,30,0.00,,,0.00,0,Wunderground v.1.15,2013-10-08 11:32:00,
2013-10-08 04:38:00,56.5,25.4,29.90,SW,226,10.0,14.0,30,0.00,,,0.00,0,Wunderground v.1.15,2013-10-08 11:38:00,
2013-10-08 04:44:00,56.6,25.5,29.90,SW,226,10.0,13.0,30,0.00,,,0.00,0,Wunderground v.1.15,2013-10-08 11:44:00,
2013-10-08 04:50:00,56.4,25.3,29.89,SW,226,10.0,10.0,30,0.00,,,0.00,0,Wunderground v.1.15,2013-10-08 11:50:00,
2013-10-08 04:55:00,56.4,26.1,29.89,SW,226,10.0,13.0,31,0.00,,,0.00,0,Wunderground v.1.15,2013-10-08 11:55:00,
2013-10-08 05:00:00,56.2,25.9,29.88,SW,226,10.0,10.0,31,0.00,,,0.00,0,Wunderground v.1.15,2013-10-08 12:00:00,
2013-10-08 05:06:00,55.7,25.5,29.88,SW,226,8.0,10.0,31,0.00,,,0.00,0,Wunderground v.1.15,2013-10-08 12:06:00,
2013-10-08 05:11:00,55.5,25.3,29.88,SW,226,7.0,7.0,31,0.00,,,0.00,0,Wunderground v.1.15,2013-10-08 12:11:00,
2013-10-08 05:16:00,55.9,25.7,29.88,SW,226,8.0,13.0,31,0.00,,,0.00,0,Wunderground v.1.15,2013-10-08 12:16:00,
2013-10-08 05:21:00,55.6,25.4,29.88,SW,226,8.0,8.0,31,0.00,,,0.00,0,Wunderground v.1.15,2013-10-08 12:21:00,
2013-10-08 05:27:00,55.1,25.7,29.87,SW,226,6.0,9.0,32,0.00,,,0.00,0,Wunderground v.1.15,2013-10-08 12:27:00,
2013-10-08 05:32:00,55.5,26.1,29.87,SW,226,7.0,19.0,32,0.00,,,0.00,0,Wunderground v.1.15,2013-10-08 12:32:00,
2013-10-08 05:38:00,55.7,26.3,29.87,SW,226,9.0,19.0,32,0.00,,,0.00,0,Wunderground v.1.15,2013-10-08 12:38:00,
2013-10-08 05:43:00,55.7,26.3,29.87,SW,226,8.0,11.0,32,0.00,,,0.00,0,Wunderground v.1.15,2013-10-08 12:43:00,
2013-10-08 05:48:00,56.0,25.8,29.87,SW,226,8.0,14.0,31,0.00,,,0.00,0,Wunderground v.1.15,2013-10-08 12:48:00,
2013-10-08 05:54:00,55.9,25.7,29.86,SW,226,8.0,15.0,31,0.00,,,0.00,0,Wunderground v.1.15,2013-10-08 12:54:00,
2013-10-08 05:59:00,56.2,25.9,29.86,SW,226,9.0,15.0,31,0.00,,,0.00,0,Wunderground v.1.15,2013-10-08 12:59:00,
2013-10-08 06:05:00,56.2,25.9,29.86,SW,226,10.0,14.0,31,0.00,,,0.00,0,Wunderground v.1.15,2013-10-08 13:05:00,
2013-10-08 06:10:00,55.9,25.7,29.86,SW,226,8.0,8.0,31,0.00,,,0.00,0,Wunderground v.1.15,2013-10-08 13:10:00,
2013-10-08 06:16:00,55.8,25.6,29.85,SW,226,8.0,10.0,31,0.00,,,0.00,0,Wunderground v.1.15,2013-10-08 13:16:00,
2013-10-08 06:21:00,56.0,25.8,29.85,SW,226,9.0,10.0,31,0.00,,,0.00,0,Wunderground v.1.15,2013-10-08 13:21:00,
2013-10-08 06:27:00,55.7,26.3,29.84,SW,226,8.0,10.0,32,0.00,,,0.00,0,Wunderground v.1.15,2013-10-08 13:27:00,
2013-10-08 06:32:00,55.9,26.4,29.84,SW,226,8.0,11.0,32,0.00,,,0.00,7,Wunderground v.1.15,2013-10-08 13:32:00,
2013-10-08 06:37:00,55.9,25.7,29.84,SW,226,8.0,14.0,31,0.00,,,0.00,9,Wunderground v.1.15,2013-10-08 13:37:00,
2013-10-08 06:43:00,56.2,25.9,29.84,SW,226,9.0,11.0,31,0.00,,,0.00,12,Wunderground v.1.15,2013-10-08 13:43:00,
2013-10-08 06:48:00,56.1,25.8,29.84,SW,226,8.0,11.0,31,0.00,,,0.00,14,Wunderground v.1.15,2013-10-08 13:48:00,
2013-10-08 06:53:00,56.3,26.8,29.84,SW,226,7.0,10.0,32,0.00,,,0.00,21,Wunderground v.1.15,2013-10-08 13:53:00,
2013-10-08 06:59:00,56.5,27.0,29.84,SW,226,7.0,10.0,32,0.00,,,0.00,33,Wunderground v.1.15,2013-10-08 13:59:00,
2013-10-08 07:04:00,56.8,27.2,29.84,SW,226,7.0,10.0,32,0.00,,,0.00,49,Wunderground v.1.15,2013-10-08 14:04:00,
2013-10-08 07:09:00,57.1,26.7,29.83,SW,226,7.0,13.0,31,0.00,,,0.00,65,Wunderground v.1.15,2013-10-08 14:09:00,
2013-10-08 07:14:00,57.4,27.0,29.84,SW,226,8.0,13.0,31,0.00,,,0.00,81,Wunderground v.1.15,2013-10-08 14:14:00,
2013-10-08 07:19:00,57.7,27.2,29.83,SW,226,8.0,13.0,31,0.00,,,0.00,98,Wunderground v.1.15,2013-10-08 14:19:00,
2013-10-08 07:24:00,57.9,27.4,29.83,SW,226,8.0,13.0,31,0.00,,,0.00,120,Wunderground v.1.15,2013-10-08 14:24:00,
2013-10-08 07:29:00,58.2,27.7,29.84,SW,226,9.0,13.0,31,0.00,,,0.00,139,Wunderground v.1.15,2013-10-08 14:29:00,
2013-10-08 07:35:00,58.5,27.9,29.84,SW,226,8.0,10.0,31,0.00,,,0.00,163,Wunderground v.1.15,2013-10-08 14:35:00,
2013-10-08 07:40:00,58.8,27.4,29.83,SW,226,8.0,12.0,30,0.00,,,0.00,185,Wunderground v.1.15,2013-10-08 14:40:00,
2013-10-08 07:45:00,59.0,27.6,29.83,SW,226,11.0,19.0,30,0.00,,,0.00,206,Wunderground v.1.15,2013-10-08 14:45:00,
2013-10-08 07:51:00,59.0,27.6,29.83,SW,226,12.0,13.0,30,0.00,,,0.00,232,Wunderground v.1.15,2013-10-08 14:51:00,
2013-10-08 07:56:00,59.4,27.9,29.83,SW,226,10.0,13.0,30,0.00,,,0.00,248,Wunderground v.1.15,2013-10-08 14:56:00,
2013-10-08 08:02:00,59.5,28.0,29.83,SW,226,10.0,15.0,30,0.00,,,0.00,274,Wunderground v.1.15,2013-10-08 15:02:00,
2013-10-08 08:07:00,59.8,27.4,29.83,SW,226,11.0,15.0,29,0.00,,,0.00,290,Wunderground v.1.15,2013-10-08 15:07:00,
2013-10-08 08:12:00,60.2,27.8,29.83,SW,226,9.0,11.0,29,0.00,,,0.00,306,Wunderground v.1.15,2013-10-08 15:12:00,
2013-10-08 08:17:00,60.3,27.9,29.83,SW,226,10.0,12.0,29,0.00,,,0.00,322,Wunderground v.1.15,2013-10-08 15:17:00,
2013-10-08 08:23:00,60.3,27.9,29.83,SW,226,12.0,15.0,29,0.00,,,0.00,341,Wunderground v.1.15,2013-10-08 15:23:00,
2013-10-08 08:28:00,60.5,28.1,29.83,SW,226,13.0,15.0,29,0.00,,,0.00,359,Wunderground v.1.15,2013-10-08 15:28:00,
2013-10-08 08:33:00,60.4,28.0,29.83,SW,226,12.0,18.0,29,0.00,,,0.00,374,Wunderground v.1.15,2013-10-08 15:33:00,
2013-10-08 08:39:00,61.1,28.6,29.82,SW,226,10.0,18.0,29,0.00,,,0.00,392,Wunderground v.1.15,2013-10-08 15:39:00,
2013-10-08 08:44:00,61.3,27.9,29.82,SW,226,9.0,17.0,28,0.00,,,0.00,408,Wunderground v.1.15,2013-10-08 15:44:00,
2013-10-08 08:50:00,61.1,28.6,29.82,SW,226,12.0,13.0,29,0.00,,,0.00,425,Wunderground v.1.15,2013-10-08 15:50:00,
2013-10-08 08:56:00,61.2,27.8,29.82,SW,226,14.0,17.0,28,0.00,,,0.00,446,Wunderground v.1.15,2013-10-08 15:56:00,
2013-10-08 09:01:00,61.5,28.9,29.82,SW,226,13.0,13.0,29,0.00,,,0.00,459,Wunderground v.1.15,2013-10-08 16:01:00,
2013-10-08 09:07:00,61.5,28.9,29.82,SW,226,14.0,21.0,29,0.00,,,0.00,476,Wunderground v.1.15,2013-10-08 16:07:00,
2013-10-08 09:12:00,62.1,28.6,29.81,SW,226,12.0,13.0,28,0.00,,,0.00,490,Wunderground v.1.15,2013-10-08 16:12:00,
2013-10-08 09:17:00,61.9,28.4,29.81,SW,226,13.0,20.0,28,0.00,,,0.00,504,Wunderground v.1.15,2013-10-08 16:17:00,
2013-10-08 09:23:00,61.8,28.3,29.81,SW,226,16.0,19.0,28,0.00,,,0.00,519,Wunderground v.1.15,2013-10-08 16:23:00,
2013-10-08 09:28:00,62.2,28.7,29.81,SW,226,15.0,19.0,28,0.00,,,0.00,533,Wunderground v.1.15,2013-10-08 16:28:00,
2013-10-08 09:33:00,62.8,30.0,29.81,SW,226,13.0,16.0,29,0.00,,,0.00,543,Wunderground v.1.15,2013-10-08 16:33:00,
2013-10-08 09:39:00,63.0,29.4,29.81,SW,226,12.0,26.0,28,0.00,,,0.00,559,Wunderground v.1.15,2013-10-08 16:39:00,
2013-10-08 09:44:00,62.9,29.3,29.81,SW,226,15.0,20.0,28,0.00,,,0.00,570,Wunderground v.1.15,2013-10-08 16:44:00,
2013-10-08 09:50:00,63.2,29.5,29.82,SW,226,15.0,15.0,28,0.00,,,0.00,584,Wunderground v.1.15,2013-10-08 16:50:00,
2013-10-08 09:55:00,63.1,29.4,29.81,SW,226,13.0,18.0,28,0.00,,,0.00,594,Wunderground v.1.15,2013-10-08 16:55:00,
2013-10-08 10:01:00,63.2,30.4,29.81,SW,226,15.0,15.0,29,0.00,,,0.00,606,Wunderground v.1.15,2013-10-08 17:01:00,
2013-10-08 10:07:00,63.3,30.5,29.81,SW,226,16.0,22.0,29,0.00,,,0.00,621,Wunderground v.1.15,2013-10-08 17:07:00,
2013-10-08 10:12:00,64.0,31.1,29.81,SW,226,14.0,16.0,29,0.00,,,0.00,631,Wunderground v.1.15,2013-10-08 17:12:00,
2013-10-08 10:17:00,63.1,31.1,29.81,SW,226,15.0,20.0,30,0.00,,,0.00,640,Wunderground v.1.15,2013-10-08 17:17:00,
2013-10-08 10:22:00,62.9,31.8,29.81,SW,226,18.0,18.0,31,0.00,,,0.00,650,Wunderground v.1.15,2013-10-08 17:22:00,
2013-10-08 10:27:00,63.4,31.4,29.81,SW,226,16.0,26.0,30,0.00,,,0.00,661,Wunderground v.1.15,2013-10-08 17:27:00,
2013-10-08 10:32:00,62.8,31.7,29.81,SW,226,17.0,26.0,31,0.00,,,0.00,666,Wunderground v.1.15,2013-10-08 17:32:00,
2013-10-08 10:38:00,63.0,31.9,29.82,SW,226,19.0,27.0,31,0.00,,,0.00,677,Wunderground v.1.15,2013-10-08 17:38:00,
2013-10-08 10:43:00,62.9,31.8,29.81,SW,226,19.0,25.0,31,0.00,,,0.00,682,Wunderground v.1.15,2013-10-08 17:43:00,
2013-10-08 10:48:00,63.2,32.0,29.81,SW,226,18.0,25.0,31,0.00,,,0.00,691,Wunderground v.1.15,2013-10-08 17:48:00,
2013-10-08 10:54:00,63.2,31.2,29.81,SW,226,17.0,24.0,30,0.00,,,0.00,696,Wunderground v.1.15,2013-10-08 17:54:00,
2013-10-08 10:59:00,63.7,31.7,29.81,SW,226,16.0,24.0,30,0.00,,,0.00,708,Wunderground v.1.15,2013-10-08 17:59:00,
2013-10-08 11:04:00,63.6,30.7,29.81,SW,226,15.0,20.0,29,0.00,,,0.00,714,Wunderground v.1.15,2013-10-08 18:04:00,
2013-10-08 11:09:00,64.4,31.4,29.81,SW,226,15.0,27.0,29,0.00,,,0.00,722,Wunderground v.1.15,2013-10-08 18:09:00,
2013-10-08 11:15:00,64.1,29.4,29.81,SW,226,14.0,23.0,27,0.00,,,0.00,726,Wunderground v.1.15,2013-10-08 18:15:00,
2013-10-08 11:20:00,64.1,29.4,29.81,SW,226,14.0,15.0,27,0.00,,,0.00,733,Wunderground v.1.15,2013-10-08 18:20:00,
2013-10-08 11:25:00,64.4,28.7,29.80,SW,226,14.0,22.0,26,0.00,,,0.00,737,Wunderground v.1.15,2013-10-08 18:25:00,
2013-10-08 11:31:00,64.0,28.4,29.80,SW,226,16.0,19.0,26,0.00,,,0.00,740,Wunderground v.1.15,2013-10-08 18:31:00,
2013-10-08 11:36:00,64.1,29.4,29.80,SW,226,16.0,21.0,27,0.00,,,0.00,742,Wunderground v.1.15,2013-10-08 18:36:00,
2013-10-08 11:41:00,64.4,29.7,29.80,SW,226,13.0,14.0,27,0.00,,,0.00,742,Wunderground v.1.15,2013-10-08 18:41:00,
2013-10-08 11:47:00,65.0,29.2,29.80,SW,226,11.0,19.0,26,0.00,,,0.00,745,Wunderground v.1.15,2013-10-08 18:47:00,
2013-10-08 11:52:00,64.6,29.8,29.79,SW,226,12.0,20.0,27,0.00,,,0.00,745,Wunderground v.1.15,2013-10-08 18:52:00,
2013-10-08 11:58:00,65.4,29.6,29.79,SW,226,12.0,21.0,26,0.00,,,0.00,749,Wunderground v.1.15,2013-10-08 18:58:00,
2013-10-08 12:03:00,64.8,29.1,29.79,SW,226,13.0,18.0,26,0.00,,,0.00,749,Wunderground v.1.15,2013-10-08 19:03:00,
2013-10-08 12:09:00,65.2,28.5,29.78,SW,226,14.0,18.0,25,0.00,,,0.00,751,Wunderground v.1.15,2013-10-08 19:09:00,
2013-10-08 12:15:00,64.6,27.9,29.78,SW,226,14.0,21.0,25,0.00,,,0.00,751,Wunderground v.1.15,2013-10-08 19:15:00,
2013-10-08 12:20:00,65.2,29.4,29.78,SW,226,14.0,15.0,26,0.00,,,0.00,749,Wunderground v.1.15,2013-10-08 19:20:00,
2013-10-08 12:25:00,65.2,29.4,29.78,SW,226,14.0,19.0,26,0.00,,,0.00,749,Wunderground v.1.15,2013-10-08 19:25:00,
2013-10-08 12:31:00,65.1,29.3,29.77,SW,226,14.0,14.0,26,0.00,,,0.00,745,Wunderground v.1.15,2013-10-08 19:31:00,
2013-10-08 12:37:00,65.0,29.2,29.77,SW,226,13.0,16.0,26,0.00,,,0.00,744,Wunderground v.1.15,2013-10-08 19:37:00,
2013-10-08 12:42:00,65.2,29.4,29.77,SW,226,13.0,16.0,26,0.00,,,0.00,742,Wunderground v.1.15,2013-10-08 19:42:00,
2013-10-08 12:47:00,65.3,29.5,29.76,SW,226,12.0,19.0,26,0.00,,,0.00,737,Wunderground v.1.15,2013-10-08 19:47:00,
2013-10-08 12:52:00,65.5,30.6,29.76,SW,226,12.0,16.0,27,0.00,,,0.00,737,Wunderground v.1.15,2013-10-08 19:52:00,
2013-10-08 12:57:00,65.9,29.1,29.75,SW,226,13.0,20.0,25,0.00,,,0.00,729,Wunderground v.1.15,2013-10-08 19:57:00,
2013-10-08 13:02:00,65.9,30.0,29.75,SW,226,14.0,15.0,26,0.00,,,0.00,726,Wunderground v.1.15,2013-10-08 20:02:00,
2013-10-08 13:08:00,65.7,29.8,29.75,SW,226,14.0,19.0,26,0.00,,,0.00,721,Wunderground v.1.15,2013-10-08 20:08:00,
2013-10-08 13:13:00,66.1,29.2,29.75,SW,226,14.0,19.0,25,0.00,,,0.00,715,Wunderground v.1.15,2013-10-08 20:13:00,
2013-10-08 13:18:00,65.8,29.0,29.75,SW,226,13.0,19.0,25,0.00,,,0.00,710,Wunderground v.1.15,2013-10-08 20:18:00,
2013-10-08 13:24:00,66.0,29.1,29.75,SW,226,14.0,18.0,25,0.00,,,0.00,705,Wunderground v.1.15,2013-10-08 20:24:00,
2013-10-08 13:30:00,65.3,29.5,29.75,SW,226,15.0,15.0,26,0.00,,,0.00,694,Wunderground v.1.15,2013-10-08 20:30:00,
2013-10-08 13:35:00,65.7,29.8,29.75,SW,226,14.0,17.0,26,0.00,,,0.00,687,Wunderground v.1.15,2013-10-08 20:35:00,
2013-10-08 13:40:00,66.1,30.2,29.74,SW,226,12.0,12.0,26,0.00,,,0.00,679,Wunderground v.1.15,2013-10-08 20:40:00,
2013-10-08 13:46:00,66.6,29.6,29.75,SW,226,13.0,23.0,25,0.00,,,0.00,671,Wunderground v.1.15,2013-10-08 20:46:00,
2013-10-08 13:52:00,65.8,29.0,29.74,SW,226,15.0,19.0,25,0.00,,,0.00,659,Wunderground v.1.15,2013-10-08 20:52:00,
2013-10-08 13:57:00,65.7,28.9,29.74,SW,226,14.0,19.0,25,0.00,,,0.00,652,Wunderground v.1.15,2013-10-08 20:57:00,
2013-10-08 14:02:00,65.0,28.3,29.73,SW,226,12.0,14.0,25,0.00,,,0.00,642,Wunderground v.1.15,2013-10-08 21:02:00,
2013-10-08 14:08:00,66.3,29.4,29.73,SW,226,12.0,19.0,25,0.00,,,0.00,631,Wunderground v.1.15,2013-10-08 21:08:00,
2013-10-08 14:13:00,66.5,29.6,29.73,SW,226,12.0,12.0,25,0.00,,,0.00,622,Wunderground v.1.15,2013-10-08 21:13:00,
2013-10-08 14:18:00,66.0,30.1,29.73,SW,226,10.0,17.0,26,0.00,,,0.00,612,Wunderground v.1.15,2013-10-08 21:18:00,
2013-10-08 14:24:00,66.5,29.6,29.73,SW,226,12.0,22.0,25,0.00,,,0.00,603,Wunderground v.1.15,2013-10-08 21:24:00,
2013-10-08 14:30:00,66.4,29.5,29.73,SW,226,13.0,13.0,25,0.00,,,0.00,589,Wunderground v.1.15,2013-10-08 21:30:00,
2013-10-08 14:35:00,66.5,29.6,29.73,SW,226,11.0,13.0,25,0.00,,,0.00,577,Wunderground v.1.15,2013-10-08 21:35:00,
2013-10-08 14:40:00,66.3,29.4,29.72,SW,226,10.0,14.0,25,0.00,,,0.00,566,Wunderground v.1.15,2013-10-08 21:40:00,
2013-10-08 14:45:00,66.1,29.2,29.72,SW,226,12.0,17.0,25,0.00,,,0.00,555,Wunderground v.1.15,2013-10-08 21:45:00,
2013-10-08 14:51:00,66.3,29.4,29.72,SW,226,12.0,16.0,25,0.00,,,0.00,540,Wunderground v.1.15,2013-10-08 21:51:00,
2013-10-08 14:57:00,66.3,29.4,29.72,SW,226,13.0,20.0,25,0.00,,,0.00,526,Wunderground v.1.15,2013-10-08 21:57:00,
2013-10-08 15:02:00,65.6,28.8,29.72,SW,226,13.0,18.0,25,0.00,,,0.00,512,Wunderground v.1.15,2013-10-08 22:02:00,
2013-10-08 15:08:00,66.2,29.3,29.72,SW,226,12.0,18.0,25,0.00,,,0.00,496,Wunderground v.1.15,2013-10-08 22:08:00,
2013-10-08 15:14:00,65.4,28.6,29.72,SW,226,13.0,18.0,25,0.00,,,0.00,478,Wunderground v.1.15,2013-10-08 22:14:00,
2013-10-08 15:19:00,65.6,29.8,29.73,SW,226,15.0,20.0,26,0.00,,,0.00,466,Wunderground v.1.15,2013-10-08 22:19:00,
2013-10-08 15:24:00,65.8,29.0,29.72,SW,226,13.0,15.0,25,0.00,,,0.00,454,Wunderground v.1.15,2013-10-08 22:24:00,
2013-10-08 15:30:00,65.6,28.8,29.72,SW,226,10.0,10.0,25,0.00,,,0.00,434,Wunderground v.1.15,2013-10-08 22:30:00,
2013-10-08 15:35:00,65.2,28.5,29.72,SW,226,8.0,10.0,25,0.00,,,0.00,418,Wunderground v.1.15,2013-10-08 22:35:00,
2013-10-08 15:40:00,65.3,28.5,29.72,SW,226,8.0,11.0,25,0.00,,,0.00,408,Wunderground v.1.15,2013-10-08 22:40:00,
2013-10-08 15:45:00,65.0,29.2,29.72,SW,226,11.0,15.0,26,0.00,,,0.00,392,Wunderground v.1.15,2013-10-08 22:45:00,
2013-10-08 15:51:00,64.8,28.1,29.72,SW,226,12.0,15.0,25,0.00,,,0.00,373,Wunderground v.1.15,2013-10-08 22:51:00,
2013-10-08 15:56:00,64.8,29.1,29.72,SW,226,10.0,15.0,26,0.00,,,0.00,357,Wunderground v.1.15,2013-10-08 22:56:00,
2013-10-08 16:01:00,65.1,29.3,29.71,SW,226,8.0,13.0,26,0.00,,,0.00,341,Wunderground v.1.15,2013-10-08 23:01:00,
2013-10-08 16:06:00,65.0,28.3,29.72,SW,226,8.0,16.0,25,0.00,,,0.00,322,Wunderground v.1.15,2013-10-08 23:06:00,
2013-10-08 16:11:00,64.8,28.1,29.72,SW,226,10.0,14.0,25,0.00,,,0.00,308,Wunderground v.1.15,2013-10-08 23:11:00,
2013-10-08 16:16:00,64.4,27.8,29.72,SW,226,10.0,14.0,25,0.00,,,0.00,292,Wunderground v.1.15,2013-10-08 23:16:00,
2013-10-08 16:22:00,64.4,28.7,29.72,SW,226,11.0,13.0,26,0.00,,,0.00,271,Wunderground v.1.15,2013-10-08 23:22:00,
2013-10-08 16:27:00,64.2,28.6,29.72,SW,226,11.0,18.0,26,0.00,,,0.00,253,Wunderground v.1.15,2013-10-08 23:27:00,
2013-10-08 16:33:00,63.8,28.2,29.72,SW,226,11.0,14.0,26,0.00,,,0.00,234,Wunderground v.1.15,2013-10-08 23:33:00,
2013-10-08 16:39:00,63.8,28.2,29.72,SW,226,10.0,20.0,26,0.00,,,0.00,216,Wunderground v.1.15,2013-10-08 23:39:00,
2013-10-08 16:44:00,63.8,28.2,29.72,SW,226,10.0,12.0,26,0.00,,,0.00,200,Wunderground v.1.15,2013-10-08 23:44:00,
2013-10-08 16:50:00,63.5,28.0,29.72,SW,226,10.0,10.0,26,0.00,,,0.00,178,Wunderground v.1.15,2013-10-08 23:50:00,
2013-10-08 16:55:00,63.3,27.8,29.72,SW,226,9.0,14.0,26,0.00,,,0.00,156,Wunderground v.1.15,2013-10-08 23:55:00,
2013-10-08 17:00:00,62.7,28.2,29.72,SW,226,11.0,11.0,27,0.00,,,0.00,135,Wunderground v.1.15,2013-10-09 00:00:00,
2013-10-08 17:06:00,62.7,28.2,29.72,SW,226,10.0,12.0,27,0.00,,,0.00,114,Wunderground v.1.15,2013-10-09 00:06:00,
2013-10-08 17:11:00,62.6,28.1,29.72,SW,226,8.0,9.0,27,0.00,,,0.00,95,Wunderground v.1.15,2013-10-09 00:11:00,
2013-10-08 17:17:00,62.2,27.8,29.72,SW,226,9.0,14.0,27,0.00,,,0.00,74,Wunderground v.1.15,2013-10-09 00:17:00,
2013-10-08 17:23:00,61.7,28.2,29.72,SW,226,9.0,10.0,28,0.00,,,0.00,54,Wunderground v.1.15,2013-10-09 00:23:00,
2013-10-08 17:28:00,61.4,28.0,29.71,SW,226,9.0,10.0,28,0.00,,,0.00,40,Wunderground v.1.15,2013-10-09 00:28:00,
2013-10-08 17:33:00,60.9,27.5,29.71,SW,226,8.0,10.0,28,0.00,,,0.00,28,Wunderground v.1.15,2013-10-09 00:33:00,
2013-10-08 17:38:00,60.4,28.0,29.71,SW,226,9.0,10.0,29,0.00,,,0.00,14,Wunderground v.1.15,2013-10-09 00:38:00,
2013-10-08 17:43:00,59.6,27.3,29.71,SW,226,8.0,11.0,29,0.00,,,0.00,12,Wunderground v.1.15,2013-10-09 00:43:00,
2013-10-08 17:49:00,59.0,27.6,29.71,SW,226,8.0,11.0,30,0.00,,,0.00,9,Wunderground v.1.15,2013-10-09 00:49:00,
2013-10-08 17:55:00,58.7,27.3,29.72,SW,226,5.0,7.0,30,0.00,,,0.00,5,Wunderground v.1.15,2013-10-09 00:55:00,
2013-10-08 18:00:00,58.4,27.9,29.71,SW,226,4.0,4.0,31,0.00,,,0.00,0,Wunderground v.1.15,2013-10-09 01:00:00,
2013-10-08 18:06:00,58.1,27.6,29.71,SW,226,3.0,9.0,31,0.00,,,0.00,0,Wunderground v.1.15,2013-10-09 01:06:00,
2013-10-08 18:11:00,58.0,27.5,29.71,SW,226,3.0,5.0,31,0.00,,,0.00,0,Wunderground v.1.15,2013-10-09 01:11:00,
2013-10-08 18:16:00,57.8,27.3,29.71,SW,226,2.0,5.0,31,0.00,,,0.00,0,Wunderground v.1.15,2013-10-09 01:16:00,
2013-10-08 18:22:00,57.4,27.0,29.71,SW,226,0.0,1.0,31,0.00,,,0.00,0,Wunderground v.1.15,2013-10-09 01:22:00,
2013-10-08 18:28:00,56.9,27.3,29.71,SW,226,0.0,1.0,32,0.00,,,0.00,0,Wunderground v.1.15,2013-10-09 01:28:00,
2013-10-08 18:33:00,56.6,27.0,29.71,SW,226,0.0,0.0,32,0.00,,,0.00,0,Wunderground v.1.15,2013-10-09 01:33:00,
2013-10-08 18:39:00,56.3,26.8,29.72,SW,226,0.0,3.0,32,0.00,,,0.00,0,Wunderground v.1.15,2013-10-09 01:39:00,
2013-10-08 18:44:00,56.3,26.8,29.72,SW,226,2.0,3.0,32,0.00,,,0.00,0,Wunderground v.1.15,2013-10-09 01:44:00,
2013-10-08 18:50:00,56.2,26.7,29.72,SW,226,3.0,3.0,32,0.00,,,0.00,0,Wunderground v.1.15,2013-10-09 01:50:00,
2013-10-08 18:55:00,56.2,27.4,29.72,SW,226,3.0,3.0,33,0.00,,,0.00,0,Wunderground v.1.15,2013-10-09 01:55:00,
2013-10-08 19:00:00,55.8,27.1,29.72,SW,226,3.0,3.0,33,0.00,,,0.00,0,Wunderground v.1.15,2013-10-09 02:00:00,
2013-10-08 19:05:00,55.5,26.8,29.72,SW,226,2.0,3.0,33,0.00,,,0.00,0,Wunderground v.1.15,2013-10-09 02:05:00,
2013-10-08 19:11:00,55.4,26.7,29.72,SW,226,2.0,3.0,33,0.00,,,0.00,0,Wunderground v.1.15,2013-10-09 02:11:00,
2013-10-08 19:16:00,55.3,26.7,29.72,SW,226,2.0,4.0,33,0.00,,,0.00,0,Wunderground v.1.15,2013-10-09 02:16:00,
2013-10-08 19:21:00,55.1,27.2,29.72,SW,226,2.0,2.0,34,0.00,,,0.00,0,Wunderground v.1.15,2013-10-09 02:21:00,
2013-10-08 19:26:00,54.8,26.9,29.72,SW,226,1.0,2.0,34,0.00,,,0.00,0,Wunderground v.1.15,2013-10-09 02:26:00,
2013-10-08 19:31:00,54.5,26.7,29.72,SW,226,0.0,0.0,34,0.00,,,0.00,0,Wunderground v.1.15,2013-10-09 02:31:00,
2013-10-08 19:37:00,54.0,26.9,29.72,SW,226,0.0,0.0,35,0.00,,,0.00,0,Wunderground v.1.15,2013-10-09 02:37:00,
2013-10-08 19:42:00,53.8,26.8,29.72,SW,226,0.0,0.0,35,0.00,,,0.00,0,Wunderground v.1.15,2013-10-09 02:42:00,
2013-10-08 19:47:00,53.4,27.1,29.72,SW,226,0.0,0.0,36,0.00,,,0.00,0,Wunderground v.1.15,2013-10-09 02:47:00,
2013-10-08 19:52:00,53.1,26.8,29.72,SW,226,0.0,0.0,36,0.00,,,0.00,0,Wunderground v.1.15,2013-10-09 02:52:00,
2013-10-08 19:57:00,53.2,26.9,29.72,SW,226,0.0,0.0,36,0.00,,,0.00,0,Wunderground v.1.15,2013-10-09 02:57:00,
2013-10-08 20:03:00,53.1,27.5,29.72,SW,226,0.0,0.0,37,0.00,,,0.00,0,Wunderground v.1.15,2013-10-09 03:03:00,
2013-10-08 20:08:00,52.9,27.3,29.72,SW,226,0.0,0.0,37,0.00,,,0.00,0,Wunderground v.1.15,2013-10-09 03:08:00,
2013-10-08 20:13:00,52.8,27.2,29.72,SW,226,0.0,0.0,37,0.00,,,0.00,0,Wunderground v.1.15,2013-10-09 03:13:00,
2013-10-08 20:18:00,52.5,27.6,29.72,SW,226,0.0,0.0,38,0.00,,,0.00,0,Wunderground v.1.15,2013-10-09 03:18:00,
2013-10-08 20:24:00,52.1,27.2,29.73,SW,226,0.0,0.0,38,0.00,,,0.00,0,Wunderground v.1.15,2013-10-09 03:24:00,
2013-10-08 20:29:00,51.8,27.0,29.73,SW,226,0.0,0.0,38,0.00,,,0.00,0,Wunderground v.1.15,2013-10-09 03:29:00,
2013-10-08 20:34:00,51.2,27.1,29.73,SW,226,0.0,0.0,39,0.00,,,0.00,0,Wunderground v.1.15,2013-10-09 03:34:00,
2013-10-08 20:40:00,50.1,26.7,29.73,SW,226,0.0,0.0,40,0.00,,,0.00,0,Wunderground v.1.15,2013-10-09 03:40:00,
2013-10-08 20:45:00,48.9,26.2,29.73,SW,226,0.0,0.0,41,0.00,,,0.00,0,Wunderground v.1.15,2013-10-09 03:45:00,
2013-10-08 20:51:00,48.3,26.2,29.72,SW,226,0.0,0.0,42,0.00,,,0.00,0,Wunderground v.1.15,2013-10-09 03:51:00,
2013-10-08 20:56:00,48.1,26.1,29.73,SW,226,0.0,0.0,42,0.00,,,0.00,0,Wunderground v.1.15,2013-10-09 03:56:00,
2013-10-08 21:01:00,48.0,26.0,29.73,SW,226,0.0,0.0,42,0.00,,,0.00,0,Wunderground v.1.15,2013-10-09 04:01:00,
2013-10-08 21:02:00,48.1,26.1,29.73,SW,226,0.0,0.0,42,0.00,,,0.00,0,Wunderground v.1.15,2013-10-09 04:02:00,
2013-10-08 21:03:00,48.1,26.1,29.73,SW,226,0.0,0.0,42,0.00,,,0.00,0,Wunderground v.1.15,2013-10-09 04:03:00,
2013-10-08 21:05:00,48.1,26.1,29.73,SW,226,0.0,0.0,42,0.00,,,0.00,0,Wunderground v.1.15,2013-10-09 04:05:00,
2013-10-08 21:06:00,48.2,26.2,29.73,SW,226,0.0,0.0,42,0.00,,,0.00,0,Wunderground v.1.15,2013-10-09 04:06:00,
2013-10-08 21:09:00,48.2,26.2,29.73,SW,226,0.0,0.0,42,0.00,,,0.00,0,Wunderground v.1.15,2013-10-09 04:09:00,
2013-10-08 21:15:00,48.0,26.0,29.73,SW,226,0.0,0.0,42,0.00,,,0.00,0,Wunderground v.1.15,2013-10-09 04:15:00,
2013-10-08 21:20:00,48.5,26.4,29.73,SW,226,0.0,0.0,42,0.00,,,0.00,0,Wunderground v.1.15,2013-10-09 04:20:00,
2013-10-08 21:25:00,49.2,26.5,29.73,SW,226,0.0,0.0,41,0.00,,,0.00,0,Wunderground v.1.15,2013-10-09 04:25:00,
2013-10-08 21:30:00,51.1,27.0,29.72,SW,226,1.0,6.0,39,0.00,,,0.00,0,Wunderground v.1.15,2013-10-09 04:30:00,
2013-10-08 21:36:00,52.1,26.6,29.72,SW,226,3.0,6.0,37,0.00,,,0.00,0,Wunderground v.1.15,2013-10-09 04:36:00,
2013-10-08 21:41:00,52.5,26.9,29.72,SW,226,3.0,5.0,37,0.00,,,0.00,0,Wunderground v.1.15,2013-10-09 04:41:00,
2013-10-08 21:46:00,53.1,27.5,29.72,SW,226,5.0,10.0,37,0.00,,,0.00,0,Wunderground v.1.15,2013-10-09 04:46:00,
2013-10-08 21:51:00,53.7,28.0,29.72,SW,226,7.0,7.0,37,0.00,,,0.00,0,Wunderground v.1.15,2013-10-09 04:51:00,
2013-10-08 21:56:00,54.0,28.3,29.71,SW,226,8.0,10.0,37,0.00,,,0.00,0,Wunderground v.1.15,2013-10-09 04:56:00,
2013-10-08 22:01:00,54.1,28.4,29.71,SW,226,8.0,8.0,37,0.00,,,0.00,0,Wunderground v.1.15,2013-10-09 05:01:00,
2013-10-08 22:07:00,54.1,28.4,29.71,SW,226,7.0,11.0,37,0.00,,,0.00,0,Wunderground v.1.15,2013-10-09 05:07:00,
2013-10-08 22:12:00,54.3,28.6,29.71,SW,226,8.0,8.0,37,0.00,,,0.00,0,Wunderground v.1.15,2013-10-09 05:12:00,
2013-10-08 22:18:00,54.4,29.3,29.71,SW,226,8.0,12.0,38,0.00,,,0.00,0,Wunderground v.1.15,2013-10-09 05:18:00,
2013-10-08 22:24:00,54.5,29.4,29.71,SW,226,9.0,13.0,38,0.00,,,0.00,0,Wunderground v.1.15,2013-10-09 05:24:00,
2013-10-08 22:30:00,54.5,29.4,29.70,SW,226,10.0,12.0,38,0.00,,,0.00,0,Wunderground v.1.15,2013-10-09 05:30:00,
2013-10-08 22:35:00,54.8,29.7,29.70,SW,226,12.0,16.0,38,0.00,,,0.00,0,Wunderground v.1.15,2013-10-09 05:35:00,
2013-10-08 22:40:00,54.5,29.4,29.70,SW,226,12.0,12.0,38,0.00,,,0.00,0,Wunderground v.1.15,2013-10-09 05:40:00,
2013-10-08 22:45:00,54.1,29.7,29.70,SW,226,9.0,14.0,39,0.00,,,0.00,0,Wunderground v.1.15,2013-10-09 05:45:00,
2013-10-08 22:51:00,54.2,30.4,29.70,SW,226,9.0,17.0,40,0.00,,,0.00,0,Wunderground v.1.15,2013-10-09 05:51:00,
2013-10-08 22:56:00,54.0,29.6,29.70,SW,226,9.0,17.0,39,0.00,,,0.00,0,Wunderground v.1.15,2013-10-09 05:56:00,
2013-10-08 23:01:00,54.0,29.6,29.70,SW,226,8.0,9.0,39,0.00,,,0.00,0,Wunderground v.1.15,2013-10-09 06:01:00,
2013-10-08 23:06:00,53.5,29.7,29.70,SW,226,5.0,9.0,40,0.00,,,0.00,0,Wunderground v.1.15,2013-10-09 06:06:00,
2013-10-08 23:11:00,53.3,29.6,29.70,SW,226,4.0,5.0,40,0.00,,,0.00,0,Wunderground v.1.15,2013-10-09 06:11:00,
2013-10-08 23:17:00,53.1,29.4,29.69,SW,226,5.0,9.0,40,0.00,,,0.00,0,Wunderground v.1.15,2013-10-09 06:17:00,
2013-10-08 23:22:00,53.1,30.0,29.69,SW,226,4.0,10.0,41,0.00,,,0.00,0,Wunderground v.1.15,2013-10-09 06:22:00,
2013-10-08 23:27:00,53.1,30.0,29.69,SW,226,5.0,10.0,41,0.00,,,0.00,0,Wunderground v.1.15,2013-10-09 06:27:00,
2013-10-08 23:32:00,53.0,29.9,29.69,SW,226,6.0,9.0,41,0.00,,,0.00,0,Wunderground v.1.15,2013-10-09 06:32:00,
2013-10-08 23:38:00,53.0,30.5,29.69,SW,226,6.0,9.0,42,0.00,,,0.00,0,Wunderground v.1.15,2013-10-09 06:38:00,
2013-10-08 23:43:00,52.5,29.5,29.69,SW,226,6.0,6.0,41,0.00,,,0.00,0,Wunderground v.1.15,2013-10-09 06:43:00,
2013-10-08 23:48:00,51.8,29.4,29.69,SW,226,4.0,6.0,42,0.00,,,0.00,0,Wunderground v.1.15,2013-10-09 06:48:00,
2013-10-08 23:54:00,51.5,29.7,29.69,SW,226,2.0,4.0,43,0.00,,,0.00,0,Wunderground v.1.15,2013-10-09 06:54:00,
2013-10-08 23:59:00,51.8,30.6,29.69,SW,226,3.0,6.0,44,0.00,,,0.00,0,Wunderground v.1.15,2013-10-09 06:59:00,